sensor_id;sensor_type;location;lat;lon;timestamp;temperature;humidity
21666;DHT22;10994;45.486;9.190;2022-11-15T00:02:32;11.20;99.90
21666;DHT22;10994;45.486;9.190;2022-11-15T00:05:16;11.10;99.90
21666;DHT22;10994;45.486;9.190;2022-11-15T00:08:00;11.10;99.90
21666;DHT22;10994;45.486;9.190;2022-11-15T00:10:55;11.00;99.90
21666;DHT22;10994;45.486;9.190;2022-11-15T00:13:40;11.10;99.90
21666;DHT22;10994;45.486;9.190;2022-11-15T00:16:24;11.30;99.90
21666;DHT22;10994;45.486;9.190;2022-11-15T00:19:09;11.40;99.90
21666;DHT22;10994;45.486;9.190;2022-11-15T00:21:53;11.30;99.90
21666;DHT22;10994;45.486;9.190;2022-11-15T00:24:37;11.30;99.90
21666;DHT22;10994;45.486;9.190;2022-11-15T00:27:21;11.30;99.90
21666;DHT22;10994;45.486;9.190;2022-11-15T00:30:06;11.20;99.90
21666;DHT22;10994;45.486;9.190;2022-11-15T00:32:50;11.10;99.90
21666;DHT22;10994;45.486;9.190;2022-11-15T00:35:35;11.00;99.90
21666;DHT22;10994;45.486;9.190;2022-11-15T00:38:19;10.90;99.90
21666;DHT22;10994;45.486;9.190;2022-11-15T00:41:04;10.90;99.90
21666;DHT22;10994;45.486;9.190;2022-11-15T00:43:49;11.00;99.90
21666;DHT22;10994;45.486;9.190;2022-11-15T00:46:33;11.00;99.90
21666;DHT22;10994;45.486;9.190;2022-11-15T00:49:17;10.90;99.90
21666;DHT22;10994;45.486;9.190;2022-11-15T00:52:01;10.80;99.90
21666;DHT22;10994;45.486;9.190;2022-11-15T00:54:45;10.80;99.90
21666;DHT22;10994;45.486;9.190;2022-11-15T00:57:29;10.70;99.90
21666;DHT22;10994;45.486;9.190;2022-11-15T01:00:14;10.70;99.90
21666;DHT22;10994;45.486;9.190;2022-11-15T01:03:00;10.80;99.90
21666;DHT22;10994;45.486;9.190;2022-11-15T01:05:44;10.80;99.90
21666;DHT22;10994;45.486;9.190;2022-11-15T01:08:29;10.80;99.90
21666;DHT22;10994;45.486;9.190;2022-11-15T01:11:13;10.80;99.90
21666;DHT22;10994;45.486;9.190;2022-11-15T01:13:58;10.90;99.90
21666;DHT22;10994;45.486;9.190;2022-11-15T01:16:42;11.00;99.90
21666;DHT22;10994;45.486;9.190;2022-11-15T01:19:26;11.10;99.90
21666;DHT22;10994;45.486;9.190;2022-11-15T01:22:10;11.00;99.90
21666;DHT22;10994;45.486;9.190;2022-11-15T01:24:54;11.00;99.90
21666;DHT22;10994;45.486;9.190;2022-11-15T01:27:39;11.00;99.90
21666;DHT22;10994;45.486;9.190;2022-11-15T01:30:23;11.00;99.90
21666;DHT22;10994;45.486;9.190;2022-11-15T01:33:07;11.10;99.90
21666;DHT22;10994;45.486;9.190;2022-11-15T01:35:52;11.00;99.90
21666;DHT22;10994;45.486;9.190;2022-11-15T01:38:36;11.00;99.90
21666;DHT22;10994;45.486;9.190;2022-11-15T01:41:38;11.00;99.90
21666;DHT22;10994;45.486;9.190;2022-11-15T01:47:23;11.00;99.90
21666;DHT22;10994;45.486;9.190;2022-11-15T01:50:19;10.90;99.90
21666;DHT22;10994;45.486;9.190;2022-11-15T01:53:05;10.80;99.90
21666;DHT22;10994;45.486;9.190;2022-11-15T01:55:49;10.70;99.90
21666;DHT22;10994;45.486;9.190;2022-11-15T01:58:34;10.60;99.90
21666;DHT22;10994;45.486;9.190;2022-11-15T02:01:19;10.60;99.90
21666;DHT22;10994;45.486;9.190;2022-11-15T02:04:11;10.60;99.90
21666;DHT22;10994;45.486;9.190;2022-11-15T02:06:57;10.50;99.90
21666;DHT22;10994;45.486;9.190;2022-11-15T02:09:41;10.50;99.90
21666;DHT22;10994;45.486;9.190;2022-11-15T02:12:26;10.50;99.90
21666;DHT22;10994;45.486;9.190;2022-11-15T02:15:11;10.30;99.90
21666;DHT22;10994;45.486;9.190;2022-11-15T02:18:10;10.20;99.90
21666;DHT22;10994;45.486;9.190;2022-11-15T02:21:11;10.30;99.90
21666;DHT22;10994;45.486;9.190;2022-11-15T02:30:42;10.00;99.90
21666;DHT22;10994;45.486;9.190;2022-11-15T02:33:53;10.30;99.90
21666;DHT22;10994;45.486;9.190;2022-11-15T02:40:13;10.60;99.90
21666;DHT22;10994;45.486;9.190;2022-11-15T02:43:12;10.50;99.90
21666;DHT22;10994;45.486;9.190;2022-11-15T02:49:30;10.60;99.90
21666;DHT22;10994;45.486;9.190;2022-11-15T02:52:23;10.60;99.90
21666;DHT22;10994;45.486;9.190;2022-11-15T02:55:36;10.60;99.90
21666;DHT22;10994;45.486;9.190;2022-11-15T02:58:46;10.50;99.90
21666;DHT22;10994;45.486;9.190;2022-11-15T03:01:56;10.40;99.90
21666;DHT22;10994;45.486;9.190;2022-11-15T03:14:00;10.60;99.90
21666;DHT22;10994;45.486;9.190;2022-11-15T03:19:50;10.80;99.90
21666;DHT22;10994;45.486;9.190;2022-11-15T03:22:40;10.70;99.90
21666;DHT22;10994;45.486;9.190;2022-11-15T03:25:26;10.70;99.90
21666;DHT22;10994;45.486;9.190;2022-11-15T03:28:16;10.50;99.90
21666;DHT22;10994;45.486;9.190;2022-11-15T03:31:02;10.50;99.90
21666;DHT22;10994;45.486;9.190;2022-11-15T03:34:09;10.50;99.90
21666;DHT22;10994;45.486;9.190;2022-11-15T03:36:55;10.50;99.90
21666;DHT22;10994;45.486;9.190;2022-11-15T03:39:40;10.50;99.90
21666;DHT22;10994;45.486;9.190;2022-11-15T03:42:36;10.50;99.90
21666;DHT22;10994;45.486;9.190;2022-11-15T03:45:29;10.50;99.90
21666;DHT22;10994;45.486;9.190;2022-11-15T03:48:20;10.40;99.90
21666;DHT22;10994;45.486;9.190;2022-11-15T03:51:06;10.40;99.90
21666;DHT22;10994;45.486;9.190;2022-11-15T03:53:50;10.50;99.90
21666;DHT22;10994;45.486;9.190;2022-11-15T03:56:34;10.50;99.90
21666;DHT22;10994;45.486;9.190;2022-11-15T03:59:18;10.50;99.90
21666;DHT22;10994;45.486;9.190;2022-11-15T04:02:03;10.50;99.90
21666;DHT22;10994;45.486;9.190;2022-11-15T04:04:47;10.50;99.90
21666;DHT22;10994;45.486;9.190;2022-11-15T04:07:31;10.60;99.90
21666;DHT22;10994;45.486;9.190;2022-11-15T04:10:16;10.60;99.90
21666;DHT22;10994;45.486;9.190;2022-11-15T04:13:02;10.50;99.90
21666;DHT22;10994;45.486;9.190;2022-11-15T04:15:46;10.50;99.90
21666;DHT22;10994;45.486;9.190;2022-11-15T04:18:30;10.60;99.90
21666;DHT22;10994;45.486;9.190;2022-11-15T04:21:14;10.70;99.90
21666;DHT22;10994;45.486;9.190;2022-11-15T04:24:17;10.80;99.90
21666;DHT22;10994;45.486;9.190;2022-11-15T04:27:01;10.70;99.90
21666;DHT22;10994;45.486;9.190;2022-11-15T04:29:46;10.50;99.90
21666;DHT22;10994;45.486;9.190;2022-11-15T04:32:30;10.50;99.90
21666;DHT22;10994;45.486;9.190;2022-11-15T04:35:14;10.40;99.90
21666;DHT22;10994;45.486;9.190;2022-11-15T04:37:58;10.40;99.90
21666;DHT22;10994;45.486;9.190;2022-11-15T04:40:43;10.30;99.90
21666;DHT22;10994;45.486;9.190;2022-11-15T04:43:28;10.50;99.90
21666;DHT22;10994;45.486;9.190;2022-11-15T04:46:12;10.40;99.90
21666;DHT22;10994;45.486;9.190;2022-11-15T04:48:56;10.40;99.90
21666;DHT22;10994;45.486;9.190;2022-11-15T04:51:40;10.30;99.90
21666;DHT22;10994;45.486;9.190;2022-11-15T04:54:24;10.30;99.90
21666;DHT22;10994;45.486;9.190;2022-11-15T04:57:08;10.30;99.90
21666;DHT22;10994;45.486;9.190;2022-11-15T04:59:53;10.40;99.90
21666;DHT22;10994;45.486;9.190;2022-11-15T05:02:37;10.50;99.90
21666;DHT22;10994;45.486;9.190;2022-11-15T05:05:40;10.60;99.90
21666;DHT22;10994;45.486;9.190;2022-11-15T05:08:24;10.30;99.90
21666;DHT22;10994;45.486;9.190;2022-11-15T05:11:08;10.40;99.90
21666;DHT22;10994;45.486;9.190;2022-11-15T05:13:53;10.50;99.90
21666;DHT22;10994;45.486;9.190;2022-11-15T05:16:37;10.50;99.90
21666;DHT22;10994;45.486;9.190;2022-11-15T05:19:22;10.60;99.90
21666;DHT22;10994;45.486;9.190;2022-11-15T05:22:06;10.50;99.90
21666;DHT22;10994;45.486;9.190;2022-11-15T05:24:50;10.40;99.90
21666;DHT22;10994;45.486;9.190;2022-11-15T05:27:35;10.40;99.90
21666;DHT22;10994;45.486;9.190;2022-11-15T05:30:19;10.50;99.90
21666;DHT22;10994;45.486;9.190;2022-11-15T05:33:04;10.40;99.90
21666;DHT22;10994;45.486;9.190;2022-11-15T05:36:00;10.40;99.90
21666;DHT22;10994;45.486;9.190;2022-11-15T05:38:47;10.50;99.90
21666;DHT22;10994;45.486;9.190;2022-11-15T05:41:46;10.50;99.90
21666;DHT22;10994;45.486;9.190;2022-11-15T05:44:31;10.60;99.90
21666;DHT22;10994;45.486;9.190;2022-11-15T05:47:22;10.60;99.90
21666;DHT22;10994;45.486;9.190;2022-11-15T05:50:07;10.60;99.90
21666;DHT22;10994;45.486;9.190;2022-11-15T05:52:55;10.60;99.90
21666;DHT22;10994;45.486;9.190;2022-11-15T05:55:39;10.70;99.90
21666;DHT22;10994;45.486;9.190;2022-11-15T05:58:24;10.80;99.90
21666;DHT22;10994;45.486;9.190;2022-11-15T06:01:08;10.80;99.90
21666;DHT22;10994;45.486;9.190;2022-11-15T06:03:53;10.90;99.90
21666;DHT22;10994;45.486;9.190;2022-11-15T06:06:37;10.80;99.90
21666;DHT22;10994;45.486;9.190;2022-11-15T06:09:21;10.50;99.90
21666;DHT22;10994;45.486;9.190;2022-11-15T06:12:05;10.60;99.90
21666;DHT22;10994;45.486;9.190;2022-11-15T06:14:50;10.50;99.90
21666;DHT22;10994;45.486;9.190;2022-11-15T06:17:34;10.40;99.90
21666;DHT22;10994;45.486;9.190;2022-11-15T06:20:18;10.50;99.90
21666;DHT22;10994;45.486;9.190;2022-11-15T06:23:04;10.30;99.90
21666;DHT22;10994;45.486;9.190;2022-11-15T06:25:48;10.30;99.90
21666;DHT22;10994;45.486;9.190;2022-11-15T06:28:33;10.30;99.90
21666;DHT22;10994;45.486;9.190;2022-11-15T06:31:17;10.30;99.90
21666;DHT22;10994;45.486;9.190;2022-11-15T06:34:01;10.40;99.90
21666;DHT22;10994;45.486;9.190;2022-11-15T06:36:45;10.40;99.90
21666;DHT22;10994;45.486;9.190;2022-11-15T06:39:29;10.30;99.90
21666;DHT22;10994;45.486;9.190;2022-11-15T06:42:13;10.40;99.90
21666;DHT22;10994;45.486;9.190;2022-11-15T06:44:57;10.40;99.90
21666;DHT22;10994;45.486;9.190;2022-11-15T06:47:47;10.50;99.90
21666;DHT22;10994;45.486;9.190;2022-11-15T06:50:31;10.40;99.90
21666;DHT22;10994;45.486;9.190;2022-11-15T06:53:16;10.40;99.90
21666;DHT22;10994;45.486;9.190;2022-11-15T06:56:01;10.50;99.90
21666;DHT22;10994;45.486;9.190;2022-11-15T06:58:46;10.50;99.90
21666;DHT22;10994;45.486;9.190;2022-11-15T07:01:30;10.40;99.90
21666;DHT22;10994;45.486;9.190;2022-11-15T07:04:14;10.40;99.90
21666;DHT22;10994;45.486;9.190;2022-11-15T07:06:58;10.40;99.90
21666;DHT22;10994;45.486;9.190;2022-11-15T07:09:42;10.50;99.90
21666;DHT22;10994;45.486;9.190;2022-11-15T07:12:26;10.60;99.90
21666;DHT22;10994;45.486;9.190;2022-11-15T07:15:10;10.50;99.90
21666;DHT22;10994;45.486;9.190;2022-11-15T07:17:54;10.70;99.90
21666;DHT22;10994;45.486;9.190;2022-11-15T07:20:39;10.80;99.90
21666;DHT22;10994;45.486;9.190;2022-11-15T07:23:23;10.80;99.90
21666;DHT22;10994;45.486;9.190;2022-11-15T07:26:08;10.90;99.90
21666;DHT22;10994;45.486;9.190;2022-11-15T07:28:52;11.00;99.90
21666;DHT22;10994;45.486;9.190;2022-11-15T07:31:36;11.10;99.90
21666;DHT22;10994;45.486;9.190;2022-11-15T07:34:21;11.20;99.90
21666;DHT22;10994;45.486;9.190;2022-11-15T07:37:05;11.10;99.90
21666;DHT22;10994;45.486;9.190;2022-11-15T07:39:48;11.10;99.90
21666;DHT22;10994;45.486;9.190;2022-11-15T07:42:33;11.00;99.90
21666;DHT22;10994;45.486;9.190;2022-11-15T07:45:46;11.00;99.90
21666;DHT22;10994;45.486;9.190;2022-11-15T07:48:31;11.00;99.90
21666;DHT22;10994;45.486;9.190;2022-11-15T07:51:16;11.10;99.90
21666;DHT22;10994;45.486;9.190;2022-11-15T07:54:01;11.20;99.90
21666;DHT22;10994;45.486;9.190;2022-11-15T07:56:45;11.20;99.90
21666;DHT22;10994;45.486;9.190;2022-11-15T07:59:29;11.20;99.90
21666;DHT22;10994;45.486;9.190;2022-11-15T08:02:13;11.30;99.90
21666;DHT22;10994;45.486;9.190;2022-11-15T08:05:00;11.40;99.90
21666;DHT22;10994;45.486;9.190;2022-11-15T08:07:44;11.50;99.90
21666;DHT22;10994;45.486;9.190;2022-11-15T08:10:29;11.50;99.90
21666;DHT22;10994;45.486;9.190;2022-11-15T08:13:13;11.50;99.90
21666;DHT22;10994;45.486;9.190;2022-11-15T08:15:59;11.50;99.90
21666;DHT22;10994;45.486;9.190;2022-11-15T08:18:43;11.50;99.90
21666;DHT22;10994;45.486;9.190;2022-11-15T08:21:28;11.60;99.90
21666;DHT22;10994;45.486;9.190;2022-11-15T08:24:12;11.70;99.90
21666;DHT22;10994;45.486;9.190;2022-11-15T08:26:56;11.70;99.90
21666;DHT22;10994;45.486;9.190;2022-11-15T08:29:42;11.60;99.90
21666;DHT22;10994;45.486;9.190;2022-11-15T08:32:27;11.60;99.90
21666;DHT22;10994;45.486;9.190;2022-11-15T08:35:11;11.60;99.90
21666;DHT22;10994;45.486;9.190;2022-11-15T08:37:56;11.60;99.90
21666;DHT22;10994;45.486;9.190;2022-11-15T08:40:40;11.70;99.90
21666;DHT22;10994;45.486;9.190;2022-11-15T08:43:24;11.70;99.90
21666;DHT22;10994;45.486;9.190;2022-11-15T08:46:11;11.70;99.90
21666;DHT22;10994;45.486;9.190;2022-11-15T08:48:56;11.70;99.90
21666;DHT22;10994;45.486;9.190;2022-11-15T08:51:40;11.70;99.90
21666;DHT22;10994;45.486;9.190;2022-11-15T08:54:24;11.80;99.90
21666;DHT22;10994;45.486;9.190;2022-11-15T08:57:08;11.70;99.90
21666;DHT22;10994;45.486;9.190;2022-11-15T08:59:53;11.80;99.90
21666;DHT22;10994;45.486;9.190;2022-11-15T09:02:38;11.70;99.90
21666;DHT22;10994;45.486;9.190;2022-11-15T09:05:22;11.70;99.90
21666;DHT22;10994;45.486;9.190;2022-11-15T09:08:07;11.70;99.90
21666;DHT22;10994;45.486;9.190;2022-11-15T09:10:51;11.60;99.90
21666;DHT22;10994;45.486;9.190;2022-11-15T09:13:36;11.60;99.90
21666;DHT22;10994;45.486;9.190;2022-11-15T09:16:23;11.60;99.90
21666;DHT22;10994;45.486;9.190;2022-11-15T09:19:10;11.60;99.90
21666;DHT22;10994;45.486;9.190;2022-11-15T09:21:54;11.50;99.90
21666;DHT22;10994;45.486;9.190;2022-11-15T09:24:39;11.50;99.90
21666;DHT22;10994;45.486;9.190;2022-11-15T09:27:26;11.50;99.90
21666;DHT22;10994;45.486;9.190;2022-11-15T09:30:11;11.50;99.90
21666;DHT22;10994;45.486;9.190;2022-11-15T09:32:56;11.50;99.90
21666;DHT22;10994;45.486;9.190;2022-11-15T09:35:40;11.70;99.90
21666;DHT22;10994;45.486;9.190;2022-11-15T09:38:24;11.60;99.90
21666;DHT22;10994;45.486;9.190;2022-11-15T09:44:46;11.80;99.90
21666;DHT22;10994;45.486;9.190;2022-11-15T09:47:55;11.70;99.90
21666;DHT22;10994;45.486;9.190;2022-11-15T09:50:51;11.80;99.90
21666;DHT22;10994;45.486;9.190;2022-11-15T09:53:52;11.80;99.90
21666;DHT22;10994;45.486;9.190;2022-11-15T09:56:23;11.70;99.90
21666;DHT22;10994;45.486;9.190;2022-11-15T10:04:02;11.80;99.90
21666;DHT22;10994;45.486;9.190;2022-11-15T10:06:30;11.90;99.90
21666;DHT22;10994;45.486;9.190;2022-11-15T10:09:06;11.90;99.90
21666;DHT22;10994;45.486;9.190;2022-11-15T10:11:37;11.90;99.90
21666;DHT22;10994;45.486;9.190;2022-11-15T10:14:13;11.90;99.90
21666;DHT22;10994;45.486;9.190;2022-11-15T10:17:09;11.90;99.90
21666;DHT22;10994;45.486;9.190;2022-11-15T10:22:45;11.90;99.90
21666;DHT22;10994;45.486;9.190;2022-11-15T10:25:17;11.90;99.90
21666;DHT22;10994;45.486;9.190;2022-11-15T10:27:54;11.90;99.90
21666;DHT22;10994;45.486;9.190;2022-11-15T10:30:21;11.80;99.90
21666;DHT22;10994;45.486;9.190;2022-11-15T10:32:48;11.80;99.90
21666;DHT22;10994;45.486;9.190;2022-11-15T10:35:24;11.70;99.90
21666;DHT22;10994;45.486;9.190;2022-11-15T10:37:50;11.70;99.90
21666;DHT22;10994;45.486;9.190;2022-11-15T10:40:21;11.70;99.90
21666;DHT22;10994;45.486;9.190;2022-11-15T10:42:48;11.80;99.90
21666;DHT22;10994;45.486;9.190;2022-11-15T10:45:30;11.90;99.90
21666;DHT22;10994;45.486;9.190;2022-11-15T10:50:46;11.80;99.90
21666;DHT22;10994;45.486;9.190;2022-11-15T10:53:23;11.80;99.90
21666;DHT22;10994;45.486;9.190;2022-11-15T10:55:52;11.90;99.90
21666;DHT22;10994;45.486;9.190;2022-11-15T10:58:41;11.80;99.90
21666;DHT22;10994;45.486;9.190;2022-11-15T11:01:19;11.80;99.90
21666;DHT22;10994;45.486;9.190;2022-11-15T11:04:17;11.90;99.90
21666;DHT22;10994;45.486;9.190;2022-11-15T11:09:31;12.10;99.90
21666;DHT22;10994;45.486;9.190;2022-11-15T11:11:58;12.20;99.90
21666;DHT22;10994;45.486;9.190;2022-11-15T11:14:25;12.10;99.90
21666;DHT22;10994;45.486;9.190;2022-11-15T11:19:56;12.00;99.90
21666;DHT22;10994;45.486;9.190;2022-11-15T11:25:30;12.00;99.90
21666;DHT22;10994;45.486;9.190;2022-11-15T11:33:31;12.00;99.90
21666;DHT22;10994;45.486;9.190;2022-11-15T11:45:15;12.20;99.90
21666;DHT22;10994;45.486;9.190;2022-11-15T11:47:57;12.30;99.90
21666;DHT22;10994;45.486;9.190;2022-11-15T11:50:27;12.30;99.90
21666;DHT22;10994;45.486;9.190;2022-11-15T11:53:25;12.40;99.90
21666;DHT22;10994;45.486;9.190;2022-11-15T11:56:16;12.50;99.90
21666;DHT22;10994;45.486;9.190;2022-11-15T11:58:45;12.50;99.90
21666;DHT22;10994;45.486;9.190;2022-11-15T12:01:22;12.60;99.90
21666;DHT22;10994;45.486;9.190;2022-11-15T12:09:58;12.50;99.90
21666;DHT22;10994;45.486;9.190;2022-11-15T12:15:31;12.40;99.90
21666;DHT22;10994;45.486;9.190;2022-11-15T12:18:00;12.40;99.90
21666;DHT22;10994;45.486;9.190;2022-11-15T12:20:29;12.50;99.90
21666;DHT22;10994;45.486;9.190;2022-11-15T12:22:57;12.60;99.90
21666;DHT22;10994;45.486;9.190;2022-11-15T12:33:55;12.60;99.90
21666;DHT22;10994;45.486;9.190;2022-11-15T12:39:12;12.30;99.90
21666;DHT22;10994;45.486;9.190;2022-11-15T12:41:43;12.30;99.90
21666;DHT22;10994;45.486;9.190;2022-11-15T12:47:21;12.20;99.90
21666;DHT22;10994;45.486;9.190;2022-11-15T12:49:48;12.30;99.90
21666;DHT22;10994;45.486;9.190;2022-11-15T12:52:14;12.30;99.90
21666;DHT22;10994;45.486;9.190;2022-11-15T13:02:38;12.20;99.90
21666;DHT22;10994;45.486;9.190;2022-11-15T13:28:34;12.50;99.90
21666;DHT22;10994;45.486;9.190;2022-11-15T13:31:21;12.40;99.90
21666;DHT22;10994;45.486;9.190;2022-11-15T13:33:48;12.50;99.90
21666;DHT22;10994;45.486;9.190;2022-11-15T13:36:26;12.40;99.90
21666;DHT22;10994;45.486;9.190;2022-11-15T13:39:00;12.40;99.90
21666;DHT22;10994;45.486;9.190;2022-11-15T13:41:31;12.40;99.90
21666;DHT22;10994;45.486;9.190;2022-11-15T13:43:58;12.40;99.90
21666;DHT22;10994;45.486;9.190;2022-11-15T13:46:33;12.40;99.90
21666;DHT22;10994;45.486;9.190;2022-11-15T13:49:04;12.50;99.90
21666;DHT22;10994;45.486;9.190;2022-11-15T13:51:35;12.50;99.90
21666;DHT22;10994;45.486;9.190;2022-11-15T13:57:01;12.50;99.90
21666;DHT22;10994;45.486;9.190;2022-11-15T13:59:31;12.50;99.90
21666;DHT22;10994;45.486;9.190;2022-11-15T14:02:15;12.50;99.90
21666;DHT22;10994;45.486;9.190;2022-11-15T14:07:37;12.60;99.90
21666;DHT22;10994;45.486;9.190;2022-11-15T14:12:52;12.60;99.90
21666;DHT22;10994;45.486;9.190;2022-11-15T14:15:29;12.60;99.90
21666;DHT22;10994;45.486;9.190;2022-11-15T14:17:55;12.50;99.90
21666;DHT22;10994;45.486;9.190;2022-11-15T14:20:31;12.50;99.90
21666;DHT22;10994;45.486;9.190;2022-11-15T14:23:23;12.60;99.90
21666;DHT22;10994;45.486;9.190;2022-11-15T14:25:54;12.60;99.90
21666;DHT22;10994;45.486;9.190;2022-11-15T14:30:49;12.50;99.90
21666;DHT22;10994;45.486;9.190;2022-11-15T14:33:30;12.50;99.90
21666;DHT22;10994;45.486;9.190;2022-11-15T14:36:01;12.60;99.90
21666;DHT22;10994;45.486;9.190;2022-11-15T14:38:27;12.60;99.90
21666;DHT22;10994;45.486;9.190;2022-11-15T14:40:54;12.60;99.90
21666;DHT22;10994;45.486;9.190;2022-11-15T14:43:21;12.50;99.90
21666;DHT22;10994;45.486;9.190;2022-11-15T14:45:47;12.60;99.90
21666;DHT22;10994;45.486;9.190;2022-11-15T14:48:12;12.60;99.90
21666;DHT22;10994;45.486;9.190;2022-11-15T14:50:38;12.60;99.90
21666;DHT22;10994;45.486;9.190;2022-11-15T14:53:05;12.60;99.90
21666;DHT22;10994;45.486;9.190;2022-11-15T14:55:35;12.50;99.90
21666;DHT22;10994;45.486;9.190;2022-11-15T14:58:03;12.50;99.90
21666;DHT22;10994;45.486;9.190;2022-11-15T15:00:30;12.50;99.90
21666;DHT22;10994;45.486;9.190;2022-11-15T15:02:57;12.40;99.90
21666;DHT22;10994;45.486;9.190;2022-11-15T15:05:30;12.40;99.90
21666;DHT22;10994;45.486;9.190;2022-11-15T15:07:56;12.40;99.90
21666;DHT22;10994;45.486;9.190;2022-11-15T15:10:22;12.40;99.90
21666;DHT22;10994;45.486;9.190;2022-11-15T15:12:48;12.40;99.90
21666;DHT22;10994;45.486;9.190;2022-11-15T15:15:22;12.40;99.90
21666;DHT22;10994;45.486;9.190;2022-11-15T15:17:49;12.40;99.90
21666;DHT22;10994;45.486;9.190;2022-11-15T15:20:14;12.40;99.90
21666;DHT22;10994;45.486;9.190;2022-11-15T15:22:40;12.50;99.90
21666;DHT22;10994;45.486;9.190;2022-11-15T15:27:43;12.50;99.90
21666;DHT22;10994;45.486;9.190;2022-11-15T15:30:10;12.40;99.90
21666;DHT22;10994;45.486;9.190;2022-11-15T15:32:35;12.30;99.90
21666;DHT22;10994;45.486;9.190;2022-11-15T15:35:01;12.30;99.90
21666;DHT22;10994;45.486;9.190;2022-11-15T15:37:27;12.30;99.90
21666;DHT22;10994;45.486;9.190;2022-11-15T15:39:56;12.40;99.90
21666;DHT22;10994;45.486;9.190;2022-11-15T15:42:22;12.40;99.90
21666;DHT22;10994;45.486;9.190;2022-11-15T15:44:51;12.40;99.90
21666;DHT22;10994;45.486;9.190;2022-11-15T15:47:22;12.40;99.90
21666;DHT22;10994;45.486;9.190;2022-11-15T15:49:49;12.40;99.90
21666;DHT22;10994;45.486;9.190;2022-11-15T15:52:14;12.40;99.90
21666;DHT22;10994;45.486;9.190;2022-11-15T15:54:41;12.40;99.90
21666;DHT22;10994;45.486;9.190;2022-11-15T15:57:08;12.40;99.90
21666;DHT22;10994;45.486;9.190;2022-11-15T15:59:34;12.40;99.90
21666;DHT22;10994;45.486;9.190;2022-11-15T16:02:00;12.40;99.90
21666;DHT22;10994;45.486;9.190;2022-11-15T16:04:25;12.40;99.90
21666;DHT22;10994;45.486;9.190;2022-11-15T16:06:51;12.20;99.90
21666;DHT22;10994;45.486;9.190;2022-11-15T16:09:20;12.10;99.90
21666;DHT22;10994;45.486;9.190;2022-11-15T16:12:06;12.10;99.90
21666;DHT22;10994;45.486;9.190;2022-11-15T16:14:32;12.10;99.90
21666;DHT22;10994;45.486;9.190;2022-11-15T16:16:57;12.00;99.90
21666;DHT22;10994;45.486;9.190;2022-11-15T16:19:23;12.00;99.90
21666;DHT22;10994;45.486;9.190;2022-11-15T16:21:49;11.80;99.90
21666;DHT22;10994;45.486;9.190;2022-11-15T16:24:15;11.80;99.90
21666;DHT22;10994;45.486;9.190;2022-11-15T16:26:40;11.80;99.90
21666;DHT22;10994;45.486;9.190;2022-11-15T16:29:08;11.70;99.90
21666;DHT22;10994;45.486;9.190;2022-11-15T16:31:34;11.60;99.90
21666;DHT22;10994;45.486;9.190;2022-11-15T16:34:00;11.30;99.90
21666;DHT22;10994;45.486;9.190;2022-11-15T16:36:26;11.10;99.90
21666;DHT22;10994;45.486;9.190;2022-11-15T16:38:52;11.10;99.90
21666;DHT22;10994;45.486;9.190;2022-11-15T16:41:18;11.40;99.90
21666;DHT22;10994;45.486;9.190;2022-11-15T16:43:45;11.50;99.90
21666;DHT22;10994;45.486;9.190;2022-11-15T16:46:25;11.40;99.90
21666;DHT22;10994;45.486;9.190;2022-11-15T16:48:52;11.30;99.90
21666;DHT22;10994;45.486;9.190;2022-11-15T16:51:19;11.20;99.90
21666;DHT22;10994;45.486;9.190;2022-11-15T16:53:44;11.10;99.90
21666;DHT22;10994;45.486;9.190;2022-11-15T16:56:25;11.20;99.90
21666;DHT22;10994;45.486;9.190;2022-11-15T16:58:52;11.20;99.90
21666;DHT22;10994;45.486;9.190;2022-11-15T17:01:24;11.30;99.90
21666;DHT22;10994;45.486;9.190;2022-11-15T17:03:50;11.40;99.90
21666;DHT22;10994;45.486;9.190;2022-11-15T17:06:17;11.40;99.90
21666;DHT22;10994;45.486;9.190;2022-11-15T17:08:44;11.40;99.90
21666;DHT22;10994;45.486;9.190;2022-11-15T17:11:14;11.40;99.90
21666;DHT22;10994;45.486;9.190;2022-11-15T17:13:40;11.40;99.90
21666;DHT22;10994;45.486;9.190;2022-11-15T17:16:08;11.40;99.90
21666;DHT22;10994;45.486;9.190;2022-11-15T17:18:34;11.40;99.90
21666;DHT22;10994;45.486;9.190;2022-11-15T17:21:11;11.50;99.90
21666;DHT22;10994;45.486;9.190;2022-11-15T17:23:37;11.50;99.90
21666;DHT22;10994;45.486;9.190;2022-11-15T17:26:04;11.60;99.90
21666;DHT22;10994;45.486;9.190;2022-11-15T17:28:33;11.70;99.90
21666;DHT22;10994;45.486;9.190;2022-11-15T17:31:00;11.80;99.90
21666;DHT22;10994;45.486;9.190;2022-11-15T17:33:26;11.80;99.90
21666;DHT22;10994;45.486;9.190;2022-11-15T17:35:58;11.80;99.90
21666;DHT22;10994;45.486;9.190;2022-11-15T17:38:24;11.90;99.90
21666;DHT22;10994;45.486;9.190;2022-11-15T17:43:26;12.00;99.90
21666;DHT22;10994;45.486;9.190;2022-11-15T17:45:52;12.00;99.90
21666;DHT22;10994;45.486;9.190;2022-11-15T17:48:18;12.10;99.90
21666;DHT22;10994;45.486;9.190;2022-11-15T17:50:54;12.10;99.90
21666;DHT22;10994;45.486;9.190;2022-11-15T17:53:20;12.10;99.90
21666;DHT22;10994;45.486;9.190;2022-11-15T17:55:45;12.10;99.90
21666;DHT22;10994;45.486;9.190;2022-11-15T17:58:11;12.20;99.90
21666;DHT22;10994;45.486;9.190;2022-11-15T18:00:36;12.20;99.90
21666;DHT22;10994;45.486;9.190;2022-11-15T18:03:02;12.20;99.90
21666;DHT22;10994;45.486;9.190;2022-11-15T18:05:28;12.10;99.90
21666;DHT22;10994;45.486;9.190;2022-11-15T18:07:56;12.20;99.90
21666;DHT22;10994;45.486;9.190;2022-11-15T18:10:25;12.20;99.90
21666;DHT22;10994;45.486;9.190;2022-11-15T18:12:50;12.20;99.90
21666;DHT22;10994;45.486;9.190;2022-11-15T18:15:16;12.20;99.90
21666;DHT22;10994;45.486;9.190;2022-11-15T18:17:43;12.20;99.90
21666;DHT22;10994;45.486;9.190;2022-11-15T18:20:10;12.20;99.90
21666;DHT22;10994;45.486;9.190;2022-11-15T18:22:36;12.20;99.90
21666;DHT22;10994;45.486;9.190;2022-11-15T18:25:01;12.20;99.90
21666;DHT22;10994;45.486;9.190;2022-11-15T18:27:27;12.20;99.90
21666;DHT22;10994;45.486;9.190;2022-11-15T18:29:53;12.10;99.90
21666;DHT22;10994;45.486;9.190;2022-11-15T18:32:18;12.10;99.90
21666;DHT22;10994;45.486;9.190;2022-11-15T18:34:44;12.00;99.90
21666;DHT22;10994;45.486;9.190;2022-11-15T18:37:10;12.00;99.90
21666;DHT22;10994;45.486;9.190;2022-11-15T18:39:35;12.00;99.90
21666;DHT22;10994;45.486;9.190;2022-11-15T18:42:02;11.90;99.90
21666;DHT22;10994;45.486;9.190;2022-11-15T18:44:28;11.90;99.90
21666;DHT22;10994;45.486;9.190;2022-11-15T18:46:55;11.70;99.90
21666;DHT22;10994;45.486;9.190;2022-11-15T18:49:20;11.70;99.90
21666;DHT22;10994;45.486;9.190;2022-11-15T18:51:46;11.70;99.90
21666;DHT22;10994;45.486;9.190;2022-11-15T18:54:13;11.50;99.90
21666;DHT22;10994;45.486;9.190;2022-11-15T18:56:40;11.60;99.90
21666;DHT22;10994;45.486;9.190;2022-11-15T18:59:05;11.60;99.90
21666;DHT22;10994;45.486;9.190;2022-11-15T19:01:37;11.60;99.90